Time;durP1;ratioP1;P1;durP2;ratioP2;P2;SDS_P1;SDS_P2;PMS_P1;PMS_P2;Temp;Humidity;BMP_temperature;BMP_pressure;BME280_temperature;BME280_humidity;BME280_pressure;Samples;Min_cycle;Max_cycle;Signal;HPM_P1;HPM_P2
2021/12/22 00:00:50;;;;;;;100.72;38.90;;;;;;;-6.88;100.00;102508.31;4924296;29;20119;-85
2021/12/22 00:03:17;;;;;;;103.90;39.97;;;;;;;-6.92;100.00;102490.38;4917435;29;20047;-85
2021/12/22 00:05:45;;;;;;;108.55;42.47;;;;;;;-6.73;100.00;102503.88;4935185;29;20035;-85
2021/12/22 00:08:13;;;;;;;105.10;42.47;;;;;;;-6.85;100.00;102513.34;4934954;29;20043;-85
2021/12/22 00:10:42;;;;;;;97.45;40.17;;;;;;;-7.04;100.00;102497.25;4895642;29;20033;-86
2021/12/22 00:13:07;;;;;;;92.15;40.42;;;;;;;-7.05;100.00;102496.41;4920972;29;20034;-85
2021/12/22 00:15:33;;;;;;;104.57;42.08;;;;;;;-6.95;100.00;102499.25;4927804;29;20036;-85
2021/12/22 00:17:58;;;;;;;102.35;40.80;;;;;;;-6.93;100.00;102484.31;4927077;29;20099;-85
2021/12/22 00:20:23;;;;;;;102.85;40.13;;;;;;;-7.00;100.00;102509.97;4934858;29;20142;-84
2021/12/22 00:22:49;;;;;;;94.22;39.13;;;;;;;-7.10;100.00;102515.88;4934198;29;20032;-85
2021/12/22 00:25:15;;;;;;;95.38;37.88;;;;;;;-7.26;100.00;102513.44;4934159;29;20059;-85
2021/12/22 00:27:41;;;;;;;111.15;39.38;;;;;;;-7.32;100.00;102502.47;4900651;29;20506;-85
2021/12/22 00:30:07;;;;;;;98.60;39.63;;;;;;;-7.32;100.00;102504.25;4911807;29;20036;-85
2021/12/22 00:32:34;;;;;;;99.45;40.17;;;;;;;-7.25;100.00;102507.28;4919001;29;20038;-85
2021/12/22 00:35:00;;;;;;;111.43;42.20;;;;;;;-7.24;100.00;102485.53;4934165;29;20090;-85
2021/12/22 00:37:30;;;;;;;103.13;43.17;;;;;;;-7.14;100.00;102504.81;4917472;29;20035;-85
2021/12/22 00:39:57;;;;;;;111.70;40.58;;;;;;;-7.12;100.00;102491.72;4932087;29;20054;-85
2021/12/22 00:42:24;;;;;;;99.78;40.50;;;;;;;-6.97;100.00;102513.31;4917157;29;20067;-85
2021/12/22 00:44:53;;;;;;;105.25;40.80;;;;;;;-7.08;100.00;102494.00;4934077;29;20031;-84
2021/12/22 00:47:19;;;;;;;106.28;41.60;;;;;;;-7.04;100.00;102512.88;4934180;29;20051;-85
2021/12/22 00:49:45;;;;;;;100.95;41.53;;;;;;;-7.05;100.00;102516.41;4928119;29;20188;-85
2021/12/22 00:52:10;;;;;;;105.20;40.35;;;;;;;-7.26;100.00;102493.41;4925894;29;20452;-86
2021/12/22 00:54:35;;;;;;;101.25;40.72;;;;;;;-7.29;100.00;102519.66;4927062;29;20058;-86
2021/12/22 00:57:03;;;;;;;97.72;39.75;;;;;;;-7.56;100.00;102491.84;4915217;29;20028;-87
2021/12/22 00:59:29;;;;;;;104.82;40.65;;;;;;;-7.39;100.00;102508.16;4917813;29;20119;-86
2021/12/22 01:01:54;;;;;;;100.28;41.28;;;;;;;-7.52;100.00;102500.28;4934739;29;20111;-87
2021/12/22 01:04:19;;;;;;;98.50;40.13;;;;;;;-7.40;100.00;102512.56;4933730;29;20031;-87
2021/12/22 01:06:45;;;;;;;107.60;41.03;;;;;;;-7.43;100.00;102501.47;4914451;29;20106;-87
2021/12/22 01:09:11;;;;;;;97.68;40.10;;;;;;;-7.37;100.00;102511.53;4926069;29;20147;-86
2021/12/22 01:11:36;;;;;;;109.07;39.85;;;;;;;-7.34;100.00;102506.13;4934385;29;20031;-87
2021/12/22 01:14:02;;;;;;;114.43;41.85;;;;;;;-7.36;100.00;102501.00;4933666;29;20106;-87
2021/12/22 01:16:28;;;;;;;106.95;40.95;;;;;;;-7.36;100.00;102505.38;4934232;29;20039;-87
2021/12/22 01:18:53;;;;;;;102.28;40.42;;;;;;;-7.30;100.00;102508.41;4933416;29;20059;-88
2021/12/22 01:21:26;;;;;;;107.93;39.13;;;;;;;-7.27;100.00;102516.97;4908464;29;20032;-87
2021/12/22 01:24:01;;;;;;;106.57;41.20;;;;;;;-7.36;100.00;102493.16;4916443;29;20036;-87
2021/12/22 01:26:29;;;;;;;111.60;42.03;;;;;;;-7.19;100.00;102497.31;4915136;29;20033;-87
2021/12/22 01:28:55;;;;;;;110.22;42.85;;;;;;;-7.14;100.00;102499.59;4902473;29;21640;-87
2021/12/22 01:31:20;;;;;;;113.22;43.75;;;;;;;-7.16;100.00;102489.28;4932137;29;20031;-87
2021/12/22 01:33:46;;;;;;;108.07;42.35;;;;;;;-7.21;100.00;102488.75;4933632;29;20481;-87
2021/12/22 01:36:12;;;;;;;108.85;41.42;;;;;;;-7.22;100.00;102494.06;4933343;29;20159;-87
2021/12/22 01:38:37;;;;;;;112.35;42.38;;;;;;;-7.23;100.00;102493.22;4912726;29;20039;-87
2021/12/22 01:41:02;;;;;;;112.65;41.40;;;;;;;-7.30;100.00;102508.41;4910375;29;20221;-87
2021/12/22 01:43:28;;;;;;;106.90;41.60;;;;;;;-7.43;100.00;102491.06;4914618;29;20047;-87
2021/12/22 01:51:38;;;;;;;112.47;42.15;;;;;;;-7.34;100.00;102504.34;4922599;29;20410;-87
2021/12/22 01:54:27;;;;;;;116.20;43.03;;;;;;;-7.28;100.00;102499.66;4932996;29;20184;-87
2021/12/22 01:56:54;;;;;;;117.43;44.30;;;;;;;-7.16;100.00;102491.06;4932297;29;20043;-86
2021/12/22 01:59:20;;;;;;;127.13;45.00;;;;;;;-7.19;100.00;102479.06;4928863;29;20035;-86
2021/12/22 02:01:47;;;;;;;119.20;42.38;;;;;;;-7.05;100.00;102487.75;4933212;29;20487;-86
2021/12/22 02:04:13;;;;;;;119.65;45.83;;;;;;;-7.13;100.00;102482.22;4933249;29;20071;-86
2021/12/22 02:06:40;;;;;;;118.57;45.60;;;;;;;-7.04;100.00;102489.41;4933030;29;20039;-86
2021/12/22 02:09:08;;;;;;;120.72;45.17;;;;;;;-7.04;100.00;102499.84;4928051;29;20086;-86
2021/12/22 02:11:33;;;;;;;116.50;45.13;;;;;;;-7.13;100.00;102484.81;4932719;29;20031;-86
2021/12/22 02:14:02;;;;;;;117.18;41.75;;;;;;;-7.12;100.00;102504.75;4933707;29;20419;-86
2021/12/22 02:20:25;;;;;;;110.45;39.60;;;;;;;-7.35;100.00;102507.88;4773622;30;20526;-86
2021/12/22 02:23:21;;;;;;;112.80;40.20;;;;;;;-7.40;100.00;102517.78;4782911;30;20411;-86
2021/12/22 02:26:36;;;;;;;104.50;40.15;;;;;;;-7.37;100.00;102514.13;4832470;29;20046;-86
2021/12/22 02:29:41;;;;;;;105.18;38.67;;;;;;;-7.56;100.00;102481.44;5120399;23;20268;-86
2021/12/22 03:22:23;;;;;;;99.68;37.80;;;;;;;-7.70;100.00;102517.94;5546114;23;20010;-86
2021/12/22 03:30:35;;;;;;;110.38;40.53;;;;;;;-7.69;100.00;102522.19;4904412;23;20143;-86
2021/12/22 03:33:03;;;;;;;89.47;36.95;;;;;;;-7.68;100.00;102513.47;4917044;29;20102;-85
2021/12/22 03:36:15;;;;;;;95.93;37.00;;;;;;;-7.59;100.00;102525.06;4900052;29;20484;-86
2021/12/22 03:44:57;;;;;;;99.07;37.42;;;;;;;-7.81;100.00;102524.63;5059513;23;20059;-86
2021/12/22 03:50:45;;;;;;;94.93;36.72;;;;;;;-7.69;100.00;102517.81;4933039;28;20110;-87
2021/12/22 04:17:03;;;;;;;97.38;36.60;;;;;;;-7.91;100.00;102513.13;4894516;29;20047;-85
2021/12/22 05:29:38;;;;;;;77.10;33.17;;;;;;;-7.59;100.00;102468.59;4894848;29;20054;-85
2021/12/22 07:24:51;;;;;;;67.20;29.33;;;;;;;-8.03;100.00;102428.00;5896773;23;20015;-81
2021/12/22 07:27:19;;;;;;;60.67;27.25;;;;;;;-7.99;100.00;102427.72;4876268;29;20343;-81
2021/12/22 07:29:53;;;;;;;66.10;29.33;;;;;;;-7.73;100.00;102448.66;4875084;29;20036;-80
2021/12/22 07:32:24;;;;;;;57.30;28.33;;;;;;;-7.83;100.00;102432.78;4876076;29;20496;-82
2021/12/22 07:35:00;;;;;;;64.93;29.63;;;;;;;-7.85;100.00;102420.78;4878577;29;20449;-81
2021/12/22 07:37:52;;;;;;;62.00;28.13;;;;;;;-7.86;100.00;102416.53;4877651;29;20202;-81
2021/12/22 07:40:23;;;;;;;57.42;27.80;;;;;;;-7.73;100.00;102448.66;4869915;29;20039;-81
2021/12/22 07:42:49;;;;;;;60.50;27.20;;;;;;;-7.72;100.00;102460.72;4875280;29;20029;-82
2021/12/22 07:45:49;;;;;;;61.33;28.05;;;;;;;-7.81;100.00;102445.72;4875613;29;20320;-81
2021/12/22 07:48:18;;;;;;;88.30;36.75;;;;;;;-7.85;100.00;102434.63;4861272;29;20486;-82
2021/12/22 07:50:43;;;;;;;94.35;43.38;;;;;;;-7.70;100.00;102439.81;4876063;29;20033;-82
2021/12/22 07:53:09;;;;;;;82.70;35.17;;;;;;;-7.58;100.00;102454.66;4874573;29;20664;-83
2021/12/22 07:55:43;;;;;;;59.05;28.13;;;;;;;-7.73;100.00;102433.03;4877739;29;20536;-82
2021/12/22 07:58:09;;;;;;;59.15;27.33;;;;;;;-7.78;100.00;102424.69;4876985;29;20044;-81
2021/12/22 08:00:46;;;;;;;64.80;27.42;;;;;;;-7.60;100.00;102448.69;4878668;29;20033;-82
2021/12/22 08:03:21;;;;;;;58.20;25.83;;;;;;;-7.58;100.00;102428.63;4886083;29;20037;-83
2021/12/22 08:05:56;;;;;;;55.10;27.45;;;;;;;-7.40;100.00;102449.19;4878592;29;20119;-83
2021/12/22 08:08:33;;;;;;;55.70;25.98;;;;;;;-7.46;100.00;102430.41;4859641;29;20453;-83
2021/12/22 08:11:08;;;;;;;59.13;26.77;;;;;;;-7.36;100.00;102442.84;4877959;29;20029;-82
2021/12/22 08:13:36;;;;;;;59.42;30.17;;;;;;;-7.43;100.00;102426.78;4878962;29;20112;-81
2021/12/22 08:16:08;;;;;;;63.25;30.35;;;;;;;-7.18;100.00;102459.03;4865188;29;20420;-81
2021/12/22 08:19:08;;;;;;;60.55;30.17;;;;;;;-7.30;100.00;102417.25;4897491;29;20025;-81
2021/12/22 08:21:34;;;;;;;76.18;34.50;;;;;;;-6.93;100.00;102440.00;4820677;29;20121;-83
2021/12/22 08:24:02;;;;;;;67.55;30.77;;;;;;;-6.88;100.00;102434.50;4883204;29;20452;-82
2021/12/22 08:26:27;;;;;;;60.03;29.83;;;;;;;-6.81;100.00;102440.16;4886457;29;20119;-83
2021/12/22 08:29:01;;;;;;;68.53;33.25;;;;;;;-6.86;100.00;102410.00;4910189;29;20135;-82
2021/12/22 08:31:33;;;;;;;66.57;33.35;;;;;;;-6.54;100.00;102440.03;4880800;29;20036;-82
2021/12/22 08:40:21;;;;;;;;;;;;;;;;;;;;;
2021/12/22 08:42:48;;;;;;;89.18;41.03;;;;;;;-6.34;100.00;102423.00;4857579;29;20406;-83
2021/12/22 08:45:20;;;;;;;81.32;37.33;;;;;;;-6.37;100.00;102412.78;4896916;29;20067;-82
2021/12/22 08:47:48;;;;;;;62.15;33.90;;;;;;;-6.05;100.00;102438.41;4896908;29;20035;-82
2021/12/22 08:50:24;;;;;;;72.80;36.20;;;;;;;-5.97;100.00;102433.44;4896473;29;20562;-82
2021/12/22 08:53:02;;;;;;;72.53;34.63;;;;;;;-6.00;100.00;102409.38;4879953;29;20579;-82
2021/12/22 08:55:27;;;;;;;66.60;33.40;;;;;;;-5.95;100.00;102421.13;4896251;29;20029;-82
2021/12/22 08:57:52;;;;;;;62.65;32.17;;;;;;;-5.97;100.00;102420.38;4879170;29;20390;-82
2021/12/22 09:00:21;;;;;;;62.00;32.40;;;;;;;-5.94;100.00;102427.19;4896611;29;20063;-82
2021/12/22 09:02:58;;;;;;;68.55;36.13;;;;;;;-5.79;100.00;102438.28;4896518;29;20040;-82
2021/12/22 09:05:49;;;;;;;83.13;45.15;;;;;;;-5.69;100.00;102456.75;4896339;29;20039;-82
2021/12/22 09:08:20;;;;;;;71.38;34.60;;;;;;;-5.88;100.00;102412.84;4836476;29;20049;-82
2021/12/22 09:10:45;;;;;;;73.60;35.28;;;;;;;-5.75;100.00;102428.47;4851339;29;20052;-82
2021/12/22 09:13:20;;;;;;;62.47;34.63;;;;;;;-5.80;100.00;102415.72;4850862;29;20067;-82
2021/12/22 09:15:51;;;;;;;76.00;36.00;;;;;;;-5.78;100.00;102430.38;4888985;23;20026;-82
2021/12/22 09:18:17;;;;;;;68.80;35.00;;;;;;;-5.66;100.00;102428.63;4914826;29;20362;-82
2021/12/22 09:20:48;;;;;;;72.85;37.28;;;;;;;-5.43;100.00;102443.59;4914233;29;20032;-83
2021/12/22 09:23:22;;;;;;;70.72;34.40;;;;;;;-5.62;100.00;102409.19;4925459;29;20027;-83
2021/12/22 09:25:48;;;;;;;61.20;33.40;;;;;;;-5.40;100.00;102428.50;4938947;29;20031;-85
2021/12/22 09:28:18;;;;;;;73.60;33.78;;;;;;;-5.29;100.00;102437.34;4908808;29;20035;-84
2021/12/22 09:30:52;;;;;;;69.95;34.90;;;;;;;-5.33;100.00;102427.13;4946751;29;20027;-83
2021/12/22 09:33:43;;;;;;;;;;;;;;;;;;;;;
2021/12/22 09:36:10;;;;;;;61.08;33.33;;;;;;;-5.28;100.00;102420.69;4929002;29;20491;-84
2021/12/22 09:38:36;;;;;;;70.15;35.10;;;;;;;-5.15;100.00;102437.16;4926315;23;20073;-84
2021/12/22 09:41:14;;;;;;;66.75;34.90;;;;;;;-5.04;100.00;102436.38;4894723;29;20037;-84
2021/12/22 09:44:01;;;;;;;69.63;35.63;;;;;;;-5.04;100.00;102411.03;4900227;29;20032;-84
2021/12/22 09:46:26;;;;;;;64.80;35.35;;;;;;;-5.02;100.00;102409.16;4925134;29;20059;-85
2021/12/22 09:48:59;;;;;;;71.18;38.30;;;;;;;-4.90;100.00;102415.25;4931555;29;20167;-84
2021/12/22 09:54:31;;;;;;;68.28;37.05;;;;;;;-4.59;100.00;102436.44;4915882;29;20043;-84
2021/12/22 09:57:03;;;;;;;69.75;36.33;;;;;;;-4.72;100.00;102402.53;4908080;29;20048;-85
2021/12/22 09:59:35;;;;;;;;;;;;;;;-4.45;100.00;102435.38;4914373;29;20039;-84
2021/12/22 10:02:12;;;;;;;66.25;34.97;;;;;;;-4.41;100.00;102422.88;4914293;29;19926;-85
2021/12/22 10:04:46;;;;;;;69.50;38.35;;;;;;;-4.43;100.00;102407.31;4914142;29;20428;-85
2021/12/22 10:07:26;;;;;;;63.75;36.92;;;;;;;-4.36;100.00;102406.81;4915783;29;20460;-85
2021/12/22 10:10:15;;;;;;;68.40;38.78;;;;;;;-4.23;100.00;102399.69;4914227;29;20060;-84
2021/12/22 10:12:46;;;;;;;73.10;36.88;;;;;;;-4.06;100.00;102415.84;4913919;29;20710;-88
2021/12/22 10:15:12;;;;;;;64.70;36.65;;;;;;;-4.12;100.00;102396.22;4912009;29;20107;-87
2021/12/22 10:17:43;;;;;;;67.38;36.85;;;;;;;-4.04;100.00;102395.59;4914433;29;20107;-87
2021/12/22 10:20:29;;;;;;;66.43;36.50;;;;;;;-3.76;100.00;102430.91;4912276;29;20039;-86
2021/12/22 10:23:27;;;;;;;66.53;38.67;;;;;;;-3.71;100.00;102428.72;4914424;29;20075;-86
2021/12/22 10:26:20;;;;;;;69.53;35.83;;;;;;;-3.69;100.00;102415.50;4926458;23;20507;-86
2021/12/22 10:28:48;;;;;;;65.22;35.28;;;;;;;-3.76;100.00;102411.72;4931901;29;20122;-86
2021/12/22 10:31:23;;;;;;;;;;;;;;;;;;;;;
2021/12/22 10:33:49;;;;;;;73.70;40.90;;;;;;;-3.81;100.00;102404.22;4940531;28;20055;-85
2021/12/22 10:36:25;;;;;;;76.90;42.90;;;;;;;-3.65;100.00;102425.63;4929496;29;20032;-85
2021/12/22 10:39:00;;;;;;;74.72;44.00;;;;;;;-3.71;100.00;102397.28;4932164;29;20047;-84
2021/12/22 10:41:34;;;;;;;80.88;45.95;;;;;;;-3.61;100.00;102397.38;4932231;29;20039;-85
2021/12/22 10:44:11;;;;;;;78.68;47.10;;;;;;;-3.54;100.00;102397.69;4932072;29;20027;-84
2021/12/22 10:46:42;;;;;;;77.65;45.75;;;;;;;-3.51;100.00;102381.72;4931722;29;20028;-84
2021/12/22 10:49:20;;;;;;;71.18;43.55;;;;;;;-3.42;100.00;102386.22;4931493;29;20028;-84
2021/12/22 10:51:55;;;;;;;73.80;41.72;;;;;;;-3.42;100.00;102369.66;4932267;29;20027;-84
2021/12/22 10:54:36;;;;;;;67.47;40.33;;;;;;;-3.20;100.00;102390.50;4949686;29;20109;-84
2021/12/22 10:57:13;;;;;;;60.72;36.30;;;;;;;-3.39;100.00;102356.28;4950732;28;20034;-84
2021/12/22 10:59:49;;;;;;;65.60;36.58;;;;;;;-3.25;100.00;102371.69;4918016;29;20035;-84
2021/12/22 11:02:25;;;;;;;63.45;35.88;;;;;;;-3.12;100.00;102379.38;4931775;29;20031;-84
2021/12/22 11:04:51;;;;;;;60.67;33.50;;;;;;;-3.20;100.00;102358.22;4931422;29;20036;-84
2021/12/22 11:07:26;;;;;;;57.70;33.55;;;;;;;-3.08;100.00;102357.19;4946444;28;20172;-85
2021/12/22 11:09:52;;;;;;;50.13;31.65;;;;;;;-2.94;100.00;102369.13;4934081;29;20423;-84
2021/12/22 11:12:32;;;;;;;51.85;33.60;;;;;;;-2.87;100.00;102368.59;4943151;29;20027;-84
2021/12/22 11:14:57;;;;;;;53.63;34.15;;;;;;;-2.83;100.00;102368.19;4933438;29;20479;-84
2021/12/22 11:17:23;;;;;;;61.58;34.35;;;;;;;-2.69;100.00;102379.34;4931399;29;20032;-84
2021/12/22 11:20:00;;;;;;;56.42;33.58;;;;;;;-2.63;100.00;102376.16;4931499;29;20138;-84
2021/12/22 11:22:47;;;;;;;50.30;30.67;;;;;;;-2.58;100.00;102368.72;4940184;28;20039;-84
2021/12/22 11:25:13;;;;;;;53.47;31.15;;;;;;;-2.54;100.00;102372.75;4924549;29;20126;-84
2021/12/22 11:27:38;;;;;;;53.33;30.25;;;;;;;-2.41;100.00;102369.91;4935578;29;20163;-85
2021/12/22 11:30:05;;;;;;;51.53;30.13;;;;;;;-2.39;100.00;102362.72;4950769;29;20031;-85
2021/12/22 11:32:32;;;;;;;51.28;31.00;;;;;;;-2.26;100.00;102369.53;4954299;28;20094;-83
2021/12/22 11:35:12;;;;;;;46.33;26.55;;;;;;;-2.35;100.00;102343.09;4954638;28;20551;-83
2021/12/22 11:37:38;;;;;;;44.53;25.88;;;;;;;-2.23;100.00;102354.31;4923467;29;20048;-84
2021/12/22 11:40:16;;;;;;;44.88;25.88;;;;;;;-2.21;100.00;102343.69;4934342;29;20368;-85
2021/12/22 11:42:51;;;;;;;40.92;24.42;;;;;;;-2.25;100.00;102327.34;4901203;29;20039;-85
2021/12/22 11:45:33;;;;;;;43.65;26.42;;;;;;;-2.05;100.00;102357.13;4934777;29;20019;-85
2021/12/22 11:48:09;;;;;;;44.42;26.48;;;;;;;-2.18;100.00;102331.09;4934545;29;20036;-85
2021/12/22 11:50:35;;;;;;;43.42;26.85;;;;;;;-2.14;100.00;102339.53;4934913;29;20079;-85
2021/12/22 11:53:09;;;;;;;45.45;25.83;;;;;;;-2.14;100.00;102332.50;4934111;29;20504;-85
2021/12/22 11:55:43;;;;;;;43.78;25.67;;;;;;;-2.06;100.00;102342.34;4934478;29;20059;-86
2021/12/22 11:58:22;;;;;;;44.00;26.20;;;;;;;-2.08;100.00;102338.16;4934109;29;20122;-84
2021/12/22 12:00:53;;;;;;;43.63;27.55;;;;;;;-2.01;100.00;102347.97;4934808;29;20016;-86
2021/12/22 12:03:40;;;;;;;45.38;27.85;;;;;;;-2.01;100.00;102339.28;4934360;29;20480;-86
2021/12/22 12:06:10;;;;;;;45.08;28.02;;;;;;;-2.00;100.00;102319.94;4934480;29;20078;-84
2021/12/22 12:08:45;;;;;;;55.15;30.50;;;;;;;-2.14;100.00;102293.09;4933087;29;20550;-83
2021/12/22 12:11:32;;;;;;;48.22;28.70;;;;;;;-2.15;100.00;102278.31;4934173;29;20039;-83
2021/12/22 12:14:23;;;;;;;45.40;26.95;;;;;;;-1.98;100.00;102291.72;4934983;29;20118;-85
2021/12/22 12:22:38;;;;;;;46.13;27.20;;;;;;;-1.82;100.00;102283.25;4934229;29;20051;-87
2021/12/22 12:25:17;;;;;;;46.35;28.13;;;;;;;-1.81;100.00;102271.78;4934524;29;20135;-87
2021/12/22 12:28:23;;;;;;;41.13;26.35;;;;;;;-1.65;100.00;102276.47;4934616;29;20044;-88
2021/12/22 12:31:00;;;;;;;44.80;28.05;;;;;;;-1.69;100.00;102270.69;4934496;29;20665;-87
2021/12/22 12:33:45;;;;;;;46.97;26.80;;;;;;;-1.76;100.00;102245.09;4934747;29;20036;-85
2021/12/22 12:36:17;;;;;;;45.70;26.95;;;;;;;-1.70;100.00;102253.25;4928994;23;20064;-85
2021/12/22 12:38:43;;;;;;;;;;;;;;;-1.48;100.00;102274.94;4912717;29;20044;-84
2021/12/22 12:41:12;;;;;;;45.90;26.67;;;;;;;-1.60;100.00;102249.75;4933183;29;19970;-83
2021/12/22 12:43:40;;;;;;;45.97;24.52;;;;;;;-1.45;100.00;102272.00;4933910;29;20027;-83
2021/12/22 12:46:34;;;;;;;40.97;26.45;;;;;;;-1.41;100.00;102269.94;4911833;29;20090;-83
2021/12/22 12:49:03;;;;;;;43.65;24.17;;;;;;;-1.40;100.00;102267.16;4918715;29;20024;-84
2021/12/22 12:51:33;;;;;;;42.70;25.83;;;;;;;-1.39;100.00;102279.34;4930559;29;20032;-84
2021/12/22 12:54:16;;;;;;;43.25;25.63;;;;;;;-1.35;100.00;102273.78;4909527;29;20403;-84
2021/12/22 12:57:12;;;;;;;48.60;29.35;;;;;;;-1.38;100.00;102270.47;4914621;29;20042;-84
2021/12/22 13:00:04;;;;;;;55.45;31.55;;;;;;;-1.37;100.00;102258.16;4895539;29;20705;-84
2021/12/22 13:02:31;;;;;;;58.50;31.90;;;;;;;-1.38;100.00;102261.75;4914104;29;20028;-84
2021/12/22 13:05:11;;;;;;;50.65;30.60;;;;;;;-1.38;100.00;102256.50;4914214;29;20072;-85
2021/12/22 13:07:46;;;;;;;52.05;32.80;;;;;;;-1.37;100.00;102256.34;4914262;29;20111;-85
2021/12/22 13:10:24;;;;;;;54.47;32.88;;;;;;;-1.51;100.00;102233.16;4914612;29;20035;-86
2021/12/22 13:13:12;;;;;;;52.45;32.80;;;;;;;-1.44;100.00;102241.28;4914605;29;20361;-85
2021/12/22 13:15:49;;;;;;;45.72;28.17;;;;;;;-1.32;100.00;102250.66;4895839;29;20048;-85
2021/12/22 13:18:20;;;;;;;46.97;27.45;;;;;;;-1.52;100.00;102220.97;4886434;29;20044;-85
2021/12/22 13:20:55;;;;;;;47.45;28.38;;;;;;;-1.46;100.00;102228.25;4914833;29;20032;-85
2021/12/22 13:23:23;;;;;;;43.58;26.60;;;;;;;-1.41;100.00;102233.94;4914370;29;20055;-84
2021/12/22 13:26:33;;;;;;;45.92;28.60;;;;;;;-1.35;100.00;102243.03;4910798;29;20601;-84
2021/12/22 13:28:54;;;;;;;44.97;27.42;;;;;;;-1.48;100.00;102222.34;4892834;29;20047;-84
2021/12/22 13:31:19;;;;;;;53.88;30.70;;;;;;;-1.54;100.00;102197.44;4914335;29;20083;-84
2021/12/22 13:33:54;;;;;;;50.70;29.73;;;;;;;-1.34;100.00;102226.28;4896654;29;20119;-84
2021/12/22 13:36:29;;;;;;;48.03;30.23;;;;;;;-1.51;100.00;102193.72;4913568;29;20033;-85
2021/12/22 13:39:06;;;;;;;49.88;30.33;;;;;;;-1.41;100.00;102199.75;4911903;29;20032;-84
2021/12/22 13:41:56;;;;;;;50.67;30.80;;;;;;;-1.27;100.00;102219.50;4914431;29;20043;-86
2021/12/22 13:44:37;;;;;;;52.05;31.00;;;;;;;-1.22;100.00;102217.28;4912335;29;20055;-83
2021/12/22 13:47:10;;;;;;;52.05;31.10;;;;;;;-1.31;100.00;102201.53;4911001;29;20456;-84
2021/12/22 13:49:38;;;;;;;50.63;31.92;;;;;;;-1.29;100.00;102200.41;4913652;29;20391;-84
2021/12/22 13:52:04;;;;;;;55.30;33.22;;;;;;;-1.27;100.00;102193.19;4913179;29;20043;-85
2021/12/22 13:54:39;;;;;;;55.53;33.90;;;;;;;-1.32;100.00;102176.19;4911634;29;20495;-86
2021/12/22 13:57:19;;;;;;;55.40;34.03;;;;;;;-1.33;100.00;102177.97;4912213;29;20488;-86
2021/12/22 14:00:25;;;;;;;57.63;30.98;;;;;;;-1.31;100.00;102168.16;4911539;29;20122;-86
2021/12/22 14:02:58;;;;;;;54.17;30.85;;;;;;;-1.28;100.00;102178.38;4913176;29;20403;-87
2021/12/22 14:07:51;;;;;;;52.50;30.23;;;;;;;-1.24;100.00;102184.16;4929199;29;20111;-87
2021/12/22 14:10:46;;;;;;;49.65;29.50;;;;;;;-1.41;100.00;102157.66;4930874;29;20035;-86
2021/12/22 14:29:20;;;;;;;56.03;33.15;;;;;;;-1.50;100.00;102168.22;5012504;23;20057;-86
2021/12/22 14:53:01;;;;;;;58.85;34.92;;;;;;;-2.21;100.00;102112.56;5482235;23;20077;-87
2021/12/22 15:01:37;;;;;;;60.58;34.33;;;;;;;-2.20;100.00;102119.47;4901226;29;20506;-85
2021/12/22 15:04:42;;;;;;;;;;;;;;;;;;;;;
2021/12/22 15:07:36;;;;;;;57.30;32.25;;;;;;;-2.30;100.00;102119.50;4897856;29;20054;-86
2021/12/22 15:10:27;;;;;;;64.13;34.40;;;;;;;-2.60;100.00;102082.78;4898491;29;20043;-86
2021/12/22 15:13:01;;;;;;;56.73;33.70;;;;;;;-2.64;100.00;102085.78;4886630;23;20147;-86
2021/12/22 15:18:39;;;;;;;56.05;33.15;;;;;;;-2.77;100.00;102080.84;4905025;23;20465;-85
2021/12/22 15:21:56;;;;;;;;;;;;;;;;;;;;;
2021/12/22 15:24:22;;;;;;;66.13;35.03;;;;;;;-2.75;100.00;102103.34;4862273;23;20508;-86
2021/12/22 15:26:50;;;;;;;66.30;35.67;;;;;;;-2.91;100.00;102076.84;4935937;29;20033;-86
2021/12/22 15:29:29;;;;;;;57.25;33.78;;;;;;;-2.98;100.00;102070.47;4935624;29;20024;-85
2021/12/22 15:32:00;;;;;;;58.92;33.80;;;;;;;-2.96;100.00;102064.13;4925858;29;20036;-85
2021/12/22 15:37:38;;;;;;;64.60;36.20;;;;;;;-2.98;100.00;102071.31;4897791;29;20506;-85
2021/12/22 15:40:28;;;;;;;62.65;35.95;;;;;;;-2.89;100.00;102075.72;4897157;29;20090;-86
2021/12/22 15:42:56;;;;;;;66.22;33.67;;;;;;;-2.85;100.00;102093.81;4911939;29;20128;-85
2021/12/22 15:45:28;;;;;;;63.67;34.03;;;;;;;-3.12;100.00;102053.38;4931697;29;20422;-85
2021/12/22 15:48:12;;;;;;;58.85;34.42;;;;;;;-3.07;100.00;102067.72;4935732;29;20115;-85
2021/12/22 15:50:48;;;;;;;66.40;34.45;;;;;;;-3.23;100.00;102062.19;4917351;29;20190;-86
2021/12/22 15:53:22;;;;;;;60.65;34.50;;;;;;;-3.26;100.00;102070.31;4916537;29;20043;-86
2021/12/22 15:56:37;;;;;;;66.07;35.15;;;;;;;-3.09;100.00;102087.16;4974304;23;20058;-86
2021/12/22 15:59:17;;;;;;;59.50;33.90;;;;;;;-3.33;100.00;102049.06;4934451;29;20035;-87
2021/12/22 16:01:52;;;;;;;63.08;35.33;;;;;;;-3.31;100.00;102049.75;4935282;29;20055;-87
2021/12/22 16:04:40;;;;;;;61.50;34.58;;;;;;;-3.15;100.00;102072.00;4934201;29;20487;-86
2021/12/22 16:07:11;;;;;;;65.78;34.70;;;;;;;-3.36;100.00;102026.53;4935152;29;20039;-85
2021/12/22 16:09:48;;;;;;;;;;;;;;;-3.15;100.00;102066.75;4934699;29;20050;-85
2021/12/22 16:12:23;;;;;;;69.03;33.67;;;;;;;-3.27;100.00;102038.00;4921954;29;20386;-87
2021/12/22 16:15:24;;;;;;;71.53;36.72;;;;;;;-3.35;100.00;102022.16;4915741;29;20044;-85
2021/12/22 16:21:48;;;;;;;;;;;;;;;;;;;;;
2021/12/22 16:27:01;;;;;;;69.78;38.28;;;;;;;-3.42;100.00;102023.63;4921203;23;20047;-86
2021/12/22 16:29:31;;;;;;;62.83;36.17;;;;;;;-3.53;100.00;102012.31;4914935;29;20503;-86
2021/12/22 16:32:18;;;;;;;69.15;38.75;;;;;;;-3.40;100.00;102016.47;4916013;29;20373;-86
2021/12/22 16:38:08;;;;;;;66.35;35.67;;;;;;;-3.28;100.00;102015.38;4897300;29;20507;-85
2021/12/22 16:44:10;;;;;;;66.78;34.58;;;;;;;-3.51;100.00;101978.09;4896823;29;20047;-85
2021/12/22 16:46:42;;;;;;;68.68;34.65;;;;;;;-3.45;100.00;101987.22;4896755;29;20032;-85
2021/12/22 17:22:24;;;;;;;68.80;34.45;;;;;;;-3.70;100.00;101999.88;5093373;23;20064;-87
2021/12/22 17:25:24;;;;;;;;;;;;;;;;;;;;;
2021/12/22 17:31:21;;;;;;;74.05;36.65;;;;;;;-3.84;100.00;101952.16;5063086;23;20056;-87
2021/12/22 17:33:55;;;;;;;100.43;40.58;;;;;;;-3.74;100.00;101956.56;4914824;23;20052;-91
2021/12/22 17:39:09;;;;;;;71.22;37.50;;;;;;;-3.71;100.00;101945.81;4924668;29;20544;-92
2021/12/22 17:42:05;;;;;;;71.80;35.28;;;;;;;-3.72;100.00;101949.41;4933680;29;20036;-93
2021/12/22 17:44:30;;;;;;;78.15;38.47;;;;;;;-3.63;100.00;101953.81;5140042;23;20093;-90
2021/12/22 17:47:35;;;;;;;87.43;43.80;;;;;;;-3.60;100.00;101955.34;4858006;29;20065;-88
2021/12/22 18:04:45;;;;;;;79.53;37.42;;;;;;;-3.76;100.00;101916.56;4914224;23;20136;-87
2021/12/22 18:10:38;;;;;;;73.78;37.00;;;;;;;-3.81;100.00;101914.38;4894353;29;20127;-89
2021/12/22 18:47:37;;;;;;;74.68;35.72;;;;;;;-4.17;100.00;101872.94;5143337;23;20196;-88
2021/12/22 18:50:31;;;;;;;72.05;34.90;;;;;;;-3.97;100.00;101907.03;4912253;29;20032;-90
2021/12/22 18:52:57;;;;;;;77.90;37.28;;;;;;;-4.06;100.00;101895.56;4912309;29;20036;-88
2021/12/22 18:55:35;;;;;;;82.60;38.65;;;;;;;-4.21;100.00;101878.59;4911281;29;20094;-88
2021/12/22 18:58:03;;;;;;;79.95;36.60;;;;;;;-4.19;100.00;101872.25;4915157;29;20088;-88
2021/12/22 19:00:37;;;;;;;74.13;36.58;;;;;;;-3.92;100.00;101909.22;4931624;29;20036;-88
2021/12/22 19:03:18;;;;;;;86.90;37.88;;;;;;;-4.11;100.00;101863.75;4931173;29;20032;-87
2021/12/22 19:05:46;;;;;;;76.88;35.88;;;;;;;-4.02;100.00;101864.72;4931066;29;20024;-88
2021/12/22 19:08:14;;;;;;;74.88;36.05;;;;;;;-3.85;100.00;101892.88;4931429;29;20079;-88
2021/12/22 19:10:56;;;;;;;83.53;40.53;;;;;;;-3.93;100.00;101871.75;4927286;29;20054;-89
2021/12/22 19:13:38;;;;;;;79.80;39.58;;;;;;;-4.02;100.00;101859.50;4924900;29;20076;-88
2021/12/22 19:16:04;;;;;;;87.63;42.47;;;;;;;-3.96;100.00;101872.00;4929467;29;20040;-87